sensor_id;sensor_type;location;lat;lon;timestamp;temperature;humidity
44855;DHT22;30591;48.228;16.398;2022-12-18T00:02:02;-4.50;99.90
44855;DHT22;30591;48.228;16.398;2022-12-18T00:04:34;-4.70;99.90
44855;DHT22;30591;48.228;16.398;2022-12-18T00:07:01;-4.60;99.90
44855;DHT22;30591;48.228;16.398;2022-12-18T00:09:39;-4.70;99.90
44855;DHT22;30591;48.228;16.398;2022-12-18T00:12:07;-4.80;99.90
44855;DHT22;30591;48.228;16.398;2022-12-18T00:14:50;-4.80;99.90
44855;DHT22;30591;48.228;16.398;2022-12-18T00:17:19;-4.90;99.90
44855;DHT22;30591;48.228;16.398;2022-12-18T00:19:46;-5.00;99.90
44855;DHT22;30591;48.228;16.398;2022-12-18T00:22:17;-4.90;99.90
44855;DHT22;30591;48.228;16.398;2022-12-18T00:24:58;-5.00;99.90
44855;DHT22;30591;48.228;16.398;2022-12-18T00:27:35;-5.00;99.90
44855;DHT22;30591;48.228;16.398;2022-12-18T00:30:04;-5.10;99.90
44855;DHT22;30591;48.228;16.398;2022-12-18T00:32:32;-5.10;99.90
44855;DHT22;30591;48.228;16.398;2022-12-18T00:35:01;-5.20;99.90
44855;DHT22;30591;48.228;16.398;2022-12-18T00:37:36;-5.20;99.90
44855;DHT22;30591;48.228;16.398;2022-12-18T00:40:04;-5.20;99.90
44855;DHT22;30591;48.228;16.398;2022-12-18T00:42:32;-5.30;99.90
44855;DHT22;30591;48.228;16.398;2022-12-18T00:45:19;-5.40;99.90
44855;DHT22;30591;48.228;16.398;2022-12-18T00:47:47;-5.50;99.90
44855;DHT22;30591;48.228;16.398;2022-12-18T00:50:19;-5.30;99.90
44855;DHT22;30591;48.228;16.398;2022-12-18T00:52:47;-5.50;99.90
44855;DHT22;30591;48.228;16.398;2022-12-18T00:55:16;-5.60;99.90
44855;DHT22;30591;48.228;16.398;2022-12-18T00:57:56;-5.60;99.90
44855;DHT22;30591;48.228;16.398;2022-12-18T01:00:23;-5.70;99.90
44855;DHT22;30591;48.228;16.398;2022-12-18T01:02:51;-5.50;99.90
44855;DHT22;30591;48.228;16.398;2022-12-18T01:05:19;-5.60;99.90
44855;DHT22;30591;48.228;16.398;2022-12-18T01:07:59;-5.50;99.90
44855;DHT22;30591;48.228;16.398;2022-12-18T01:10:27;-5.60;99.90
44855;DHT22;30591;48.228;16.398;2022-12-18T01:12:57;-5.80;99.90
44855;DHT22;30591;48.228;16.398;2022-12-18T01:15:28;-5.70;99.90
44855;DHT22;30591;48.228;16.398;2022-12-18T01:17:56;-5.60;99.90
44855;DHT22;30591;48.228;16.398;2022-12-18T01:20:27;-5.60;99.90
44855;DHT22;30591;48.228;16.398;2022-12-18T01:22:57;-5.70;99.90
44855;DHT22;30591;48.228;16.398;2022-12-18T01:25:39;-5.80;99.90
44855;DHT22;30591;48.228;16.398;2022-12-18T01:28:10;-5.80;99.90
44855;DHT22;30591;48.228;16.398;2022-12-18T01:31:33;-5.90;99.90
44855;DHT22;30591;48.228;16.398;2022-12-18T01:33:54;-5.80;99.90
44855;DHT22;30591;48.228;16.398;2022-12-18T01:36:34;-6.00;99.90
44855;DHT22;30591;48.228;16.398;2022-12-18T01:39:11;-6.00;99.90
44855;DHT22;30591;48.228;16.398;2022-12-18T01:41:42;-6.10;99.90
44855;DHT22;30591;48.228;16.398;2022-12-18T01:50:42;-5.90;99.90
44855;DHT22;30591;48.228;16.398;2022-12-18T01:53:15;-5.90;99.90
44855;DHT22;30591;48.228;16.398;2022-12-18T01:55:55;-6.00;99.90
44855;DHT22;30591;48.228;16.398;2022-12-18T01:58:30;-5.90;99.90
44855;DHT22;30591;48.228;16.398;2022-12-18T02:00:59;-6.00;99.90
44855;DHT22;30591;48.228;16.398;2022-12-18T02:03:28;-6.00;99.90
44855;DHT22;30591;48.228;16.398;2022-12-18T02:14:56;-6.10;99.90
44855;DHT22;30591;48.228;16.398;2022-12-18T02:17:50;-6.20;99.90
44855;DHT22;30591;48.228;16.398;2022-12-18T02:20:33;-6.30;99.90
44855;DHT22;30591;48.228;16.398;2022-12-18T02:26:27;-6.10;99.90
44855;DHT22;30591;48.228;16.398;2022-12-18T02:29:26;-6.10;99.90
44855;DHT22;30591;48.228;16.398;2022-12-18T02:32:01;-6.10;99.90
44855;DHT22;30591;48.228;16.398;2022-12-18T02:34:33;-6.10;99.90
44855;DHT22;30591;48.228;16.398;2022-12-18T02:37:13;-6.00;99.90
44855;DHT22;30591;48.228;16.398;2022-12-18T02:39:44;-6.10;99.90
44855;DHT22;30591;48.228;16.398;2022-12-18T02:42:18;-6.10;99.90
44855;DHT22;30591;48.228;16.398;2022-12-18T02:44:49;-6.10;99.90
44855;DHT22;30591;48.228;16.398;2022-12-18T02:47:38;-6.10;99.90
44855;DHT22;30591;48.228;16.398;2022-12-18T02:58:37;-6.20;99.90
44855;DHT22;30591;48.228;16.398;2022-12-18T03:01:28;-6.10;99.90
44855;DHT22;30591;48.228;16.398;2022-12-18T03:06:51;-5.80;99.90
44855;DHT22;30591;48.228;16.398;2022-12-18T03:09:34;-5.70;99.90
44855;DHT22;30591;48.228;16.398;2022-12-18T03:12:29;-5.60;99.90
44855;DHT22;30591;48.228;16.398;2022-12-18T03:15:13;-5.70;99.90
44855;DHT22;30591;48.228;16.398;2022-12-18T03:17:56;-5.90;99.90
44855;DHT22;30591;48.228;16.398;2022-12-18T03:20:30;-5.90;99.90
44855;DHT22;30591;48.228;16.398;2022-12-18T03:23:11;-5.80;99.90
44855;DHT22;30591;48.228;16.398;2022-12-18T03:26:04;-5.90;99.90
44855;DHT22;30591;48.228;16.398;2022-12-18T03:28:39;-5.80;99.90
44855;DHT22;30591;48.228;16.398;2022-12-18T03:31:23;-5.80;99.90
44855;DHT22;30591;48.228;16.398;2022-12-18T03:33:56;-5.80;99.90
44855;DHT22;30591;48.228;16.398;2022-12-18T03:36:43;-5.70;99.90
44855;DHT22;30591;48.228;16.398;2022-12-18T03:39:12;-5.60;99.90
44855;DHT22;30591;48.228;16.398;2022-12-18T03:42:11;-5.50;99.90
44855;DHT22;30591;48.228;16.398;2022-12-18T03:45:11;-5.70;99.90
44855;DHT22;30591;48.228;16.398;2022-12-18T03:48:07;-5.70;99.90
44855;DHT22;30591;48.228;16.398;2022-12-18T03:51:07;-5.70;99.90
44855;DHT22;30591;48.228;16.398;2022-12-18T03:56:57;-6.00;99.90
44855;DHT22;30591;48.228;16.398;2022-12-18T03:59:30;-6.00;99.90
44855;DHT22;30591;48.228;16.398;2022-12-18T04:02:01;-6.10;99.90
44855;DHT22;30591;48.228;16.398;2022-12-18T04:04:51;-6.20;99.90
44855;DHT22;30591;48.228;16.398;2022-12-18T04:07:20;-6.20;99.90
44855;DHT22;30591;48.228;16.398;2022-12-18T04:09:52;-6.20;99.90
44855;DHT22;30591;48.228;16.398;2022-12-18T04:12:25;-6.20;99.90
44855;DHT22;30591;48.228;16.398;2022-12-18T04:14:54;-6.40;99.90
44855;DHT22;30591;48.228;16.398;2022-12-18T04:17:24;-6.40;99.90
44855;DHT22;30591;48.228;16.398;2022-12-18T04:19:54;-6.30;99.90
44855;DHT22;30591;48.228;16.398;2022-12-18T04:22:23;-6.30;99.90
44855;DHT22;30591;48.228;16.398;2022-12-18T04:24:57;-6.30;99.90
44855;DHT22;30591;48.228;16.398;2022-12-18T04:27:34;-6.30;99.90
44855;DHT22;30591;48.228;16.398;2022-12-18T04:30:05;-6.30;99.90
44855;DHT22;30591;48.228;16.398;2022-12-18T04:32:36;-6.30;99.90
44855;DHT22;30591;48.228;16.398;2022-12-18T04:35:04;-6.50;99.90
44855;DHT22;30591;48.228;16.398;2022-12-18T04:37:36;-6.60;99.90
44855;DHT22;30591;48.228;16.398;2022-12-18T04:40:05;-6.60;99.90
44855;DHT22;30591;48.228;16.398;2022-12-18T04:42:43;-6.60;99.90
44855;DHT22;30591;48.228;16.398;2022-12-18T04:45:23;-6.50;99.90
44855;DHT22;30591;48.228;16.398;2022-12-18T04:47:51;-6.50;99.90
44855;DHT22;30591;48.228;16.398;2022-12-18T04:50:19;-6.80;99.90
44855;DHT22;30591;48.228;16.398;2022-12-18T04:52:47;-6.80;99.90
44855;DHT22;30591;48.228;16.398;2022-12-18T04:55:25;-6.80;99.90
44855;DHT22;30591;48.228;16.398;2022-12-18T04:57:54;-6.70;99.90
44855;DHT22;30591;48.228;16.398;2022-12-18T05:00:26;-6.50;99.90
44855;DHT22;30591;48.228;16.398;2022-12-18T05:03:01;-6.70;99.90
44855;DHT22;30591;48.228;16.398;2022-12-18T05:05:29;-6.90;99.90
44855;DHT22;30591;48.228;16.398;2022-12-18T05:08:07;-6.80;99.90
44855;DHT22;30591;48.228;16.398;2022-12-18T05:10:34;-6.80;99.90
44855;DHT22;30591;48.228;16.398;2022-12-18T05:13:04;-6.80;99.90
44855;DHT22;30591;48.228;16.398;2022-12-18T05:15:35;-6.90;99.90
44855;DHT22;30591;48.228;16.398;2022-12-18T05:18:15;-6.90;99.90
44855;DHT22;30591;48.228;16.398;2022-12-18T05:20:43;-6.70;99.90
44855;DHT22;30591;48.228;16.398;2022-12-18T05:23:15;-6.90;99.90
44855;DHT22;30591;48.228;16.398;2022-12-18T05:25:51;-6.80;99.90
44855;DHT22;30591;48.228;16.398;2022-12-18T05:28:21;-6.80;99.90
44855;DHT22;30591;48.228;16.398;2022-12-18T05:30:51;-6.90;99.90
44855;DHT22;30591;48.228;16.398;2022-12-18T05:33:24;-6.90;99.90
44855;DHT22;30591;48.228;16.398;2022-12-18T05:35:57;-7.00;99.90
44855;DHT22;30591;48.228;16.398;2022-12-18T05:38:28;-7.10;99.90
44855;DHT22;30591;48.228;16.398;2022-12-18T05:40:57;-7.00;99.90
44855;DHT22;30591;48.228;16.398;2022-12-18T05:43:27;-6.90;99.90
44855;DHT22;30591;48.228;16.398;2022-12-18T05:45:54;-6.90;99.90
44855;DHT22;30591;48.228;16.398;2022-12-18T05:48:25;-6.90;99.90
44855;DHT22;30591;48.228;16.398;2022-12-18T05:50:53;-7.00;99.90
44855;DHT22;30591;48.228;16.398;2022-12-18T05:53:27;-7.00;99.90
44855;DHT22;30591;48.228;16.398;2022-12-18T05:55:59;-7.00;99.90
44855;DHT22;30591;48.228;16.398;2022-12-18T05:58:32;-7.10;99.90
44855;DHT22;30591;48.228;16.398;2022-12-18T06:01:13;-7.10;99.90
44855;DHT22;30591;48.228;16.398;2022-12-18T06:03:40;-7.10;99.90
44855;DHT22;30591;48.228;16.398;2022-12-18T06:06:22;-7.20;99.90
44855;DHT22;30591;48.228;16.398;2022-12-18T06:08:59;-7.30;99.90
44855;DHT22;30591;48.228;16.398;2022-12-18T06:11:29;-7.30;99.90
44855;DHT22;30591;48.228;16.398;2022-12-18T06:13:57;-7.10;99.90
44855;DHT22;30591;48.228;16.398;2022-12-18T06:16:32;-7.30;99.90
44855;DHT22;30591;48.228;16.398;2022-12-18T06:19:03;-7.20;99.90
44855;DHT22;30591;48.228;16.398;2022-12-18T06:21:31;-7.20;99.90
44855;DHT22;30591;48.228;16.398;2022-12-18T06:24:03;-7.30;99.90
44855;DHT22;30591;48.228;16.398;2022-12-18T06:26:38;-7.40;99.90
44855;DHT22;30591;48.228;16.398;2022-12-18T06:29:06;-7.40;99.90
44855;DHT22;30591;48.228;16.398;2022-12-18T06:31:34;-7.30;99.90
44855;DHT22;30591;48.228;16.398;2022-12-18T06:34:12;-7.30;99.90
44855;DHT22;30591;48.228;16.398;2022-12-18T06:36:40;-7.30;99.90
44855;DHT22;30591;48.228;16.398;2022-12-18T06:39:07;-7.40;99.90
44855;DHT22;30591;48.228;16.398;2022-12-18T06:41:37;-7.40;99.90
44855;DHT22;30591;48.228;16.398;2022-12-18T06:44:05;-7.60;99.90
44855;DHT22;30591;48.228;16.398;2022-12-18T06:46:33;-7.60;99.90
44855;DHT22;30591;48.228;16.398;2022-12-18T06:49:04;-7.40;99.90
44855;DHT22;30591;48.228;16.398;2022-12-18T06:51:32;-7.30;99.90
44855;DHT22;30591;48.228;16.398;2022-12-18T06:54:01;-7.20;99.90
44855;DHT22;30591;48.228;16.398;2022-12-18T06:56:30;-7.40;99.90
44855;DHT22;30591;48.228;16.398;2022-12-18T06:58:59;-7.50;99.90
44855;DHT22;30591;48.228;16.398;2022-12-18T07:01:26;-7.40;99.90
44855;DHT22;30591;48.228;16.398;2022-12-18T07:03:57;-7.50;99.90
44855;DHT22;30591;48.228;16.398;2022-12-18T07:06:26;-7.50;99.90
44855;DHT22;30591;48.228;16.398;2022-12-18T07:08:54;-7.40;99.90
44855;DHT22;30591;48.228;16.398;2022-12-18T07:11:22;-7.30;99.90
44855;DHT22;30591;48.228;16.398;2022-12-18T07:13:49;-7.40;99.90
44855;DHT22;30591;48.228;16.398;2022-12-18T07:16:19;-7.50;99.90
44855;DHT22;30591;48.228;16.398;2022-12-18T07:18:52;-7.50;99.90
44855;DHT22;30591;48.228;16.398;2022-12-18T07:21:20;-7.40;99.90
44855;DHT22;30591;48.228;16.398;2022-12-18T07:23:49;-7.20;99.90
44855;DHT22;30591;48.228;16.398;2022-12-18T07:26:19;-7.20;99.90
44855;DHT22;30591;48.228;16.398;2022-12-18T07:28:48;-7.20;99.90
44855;DHT22;30591;48.228;16.398;2022-12-18T07:31:19;-7.20;99.90
44855;DHT22;30591;48.228;16.398;2022-12-18T07:33:48;-7.10;99.90
44855;DHT22;30591;48.228;16.398;2022-12-18T07:36:16;-7.00;99.90
44855;DHT22;30591;48.228;16.398;2022-12-18T07:38:55;-6.90;99.90
44855;DHT22;30591;48.228;16.398;2022-12-18T07:41:23;-6.80;99.90
44855;DHT22;30591;48.228;16.398;2022-12-18T07:43:51;-6.80;99.90
44855;DHT22;30591;48.228;16.398;2022-12-18T07:46:18;-6.70;99.90
44855;DHT22;30591;48.228;16.398;2022-12-18T07:48:47;-6.00;99.90
44855;DHT22;30591;48.228;16.398;2022-12-18T07:51:32;-6.60;99.90
44855;DHT22;30591;48.228;16.398;2022-12-18T07:53:59;-6.70;99.90
44855;DHT22;30591;48.228;16.398;2022-12-18T07:56:31;-6.70;99.90
44855;DHT22;30591;48.228;16.398;2022-12-18T07:59:03;-6.60;99.90
44855;DHT22;30591;48.228;16.398;2022-12-18T08:01:45;-6.40;99.90
44855;DHT22;30591;48.228;16.398;2022-12-18T08:04:12;-6.10;99.90
44855;DHT22;30591;48.228;16.398;2022-12-18T08:06:41;-6.00;99.90
44855;DHT22;30591;48.228;16.398;2022-12-18T08:09:13;-5.90;99.90
44855;DHT22;30591;48.228;16.398;2022-12-18T08:11:41;-5.80;99.90
44855;DHT22;30591;48.228;16.398;2022-12-18T08:14:10;-5.80;99.90
44855;DHT22;30591;48.228;16.398;2022-12-18T08:16:38;-5.80;99.90
44855;DHT22;30591;48.228;16.398;2022-12-18T08:19:06;-5.70;99.90
44855;DHT22;30591;48.228;16.398;2022-12-18T08:21:33;-5.70;99.90
44855;DHT22;30591;48.228;16.398;2022-12-18T08:24:27;-5.50;99.90
44855;DHT22;30591;48.228;16.398;2022-12-18T08:26:56;-5.40;99.90
44855;DHT22;30591;48.228;16.398;2022-12-18T08:29:44;-5.30;99.90
44855;DHT22;30591;48.228;16.398;2022-12-18T08:32:15;-5.10;99.90
44855;DHT22;30591;48.228;16.398;2022-12-18T08:34:43;-5.10;99.90
44855;DHT22;30591;48.228;16.398;2022-12-18T08:37:10;-5.00;99.90
44855;DHT22;30591;48.228;16.398;2022-12-18T08:39:37;-5.00;99.90
44855;DHT22;30591;48.228;16.398;2022-12-18T08:42:04;-4.90;99.90
44855;DHT22;30591;48.228;16.398;2022-12-18T08:45:08;-4.90;99.90
44855;DHT22;30591;48.228;16.398;2022-12-18T08:47:39;-4.70;99.90
44855;DHT22;30591;48.228;16.398;2022-12-18T08:50:06;-4.50;99.90
44855;DHT22;30591;48.228;16.398;2022-12-18T08:52:37;-4.60;99.90
44855;DHT22;30591;48.228;16.398;2022-12-18T08:55:05;-4.60;99.90
44855;DHT22;30591;48.228;16.398;2022-12-18T08:57:34;-4.60;99.90
44855;DHT22;30591;48.228;16.398;2022-12-18T09:00:33;-4.50;99.90
44855;DHT22;30591;48.228;16.398;2022-12-18T09:03:01;-4.40;99.90
44855;DHT22;30591;48.228;16.398;2022-12-18T09:05:49;-4.40;99.90
44855;DHT22;30591;48.228;16.398;2022-12-18T09:08:17;-4.30;99.90
44855;DHT22;30591;48.228;16.398;2022-12-18T09:10:46;-4.20;99.90
44855;DHT22;30591;48.228;16.398;2022-12-18T09:13:14;-4.10;99.90
44855;DHT22;30591;48.228;16.398;2022-12-18T09:15:53;-4.00;99.90
44855;DHT22;30591;48.228;16.398;2022-12-18T09:18:24;-3.90;99.90
44855;DHT22;30591;48.228;16.398;2022-12-18T09:20:52;-3.70;99.90
44855;DHT22;30591;48.228;16.398;2022-12-18T09:23:21;-3.50;99.90
44855;DHT22;30591;48.228;16.398;2022-12-18T09:25:48;-3.40;99.90
44855;DHT22;30591;48.228;16.398;2022-12-18T09:28:17;-3.20;99.90
44855;DHT22;30591;48.228;16.398;2022-12-18T09:30:48;-3.00;99.90
44855;DHT22;30591;48.228;16.398;2022-12-18T09:33:17;-2.70;99.90
44855;DHT22;30591;48.228;16.398;2022-12-18T09:35:46;-2.60;99.90
44855;DHT22;30591;48.228;16.398;2022-12-18T09:38:18;-2.60;99.90
44855;DHT22;30591;48.228;16.398;2022-12-18T09:43:23;-2.50;99.90
44855;DHT22;30591;48.228;16.398;2022-12-18T09:45:55;-2.40;99.90
44855;DHT22;30591;48.228;16.398;2022-12-18T09:48:30;-2.40;99.90
44855;DHT22;30591;48.228;16.398;2022-12-18T09:51:09;-2.50;99.90
44855;DHT22;30591;48.228;16.398;2022-12-18T09:53:55;-2.50;99.90
44855;DHT22;30591;48.228;16.398;2022-12-18T09:56:25;-2.50;99.90
44855;DHT22;30591;48.228;16.398;2022-12-18T09:59:04;-2.40;99.90
44855;DHT22;30591;48.228;16.398;2022-12-18T10:01:33;-2.50;99.90
44855;DHT22;30591;48.228;16.398;2022-12-18T10:04:11;-2.40;99.90
44855;DHT22;30591;48.228;16.398;2022-12-18T10:07:04;-2.20;99.90
44855;DHT22;30591;48.228;16.398;2022-12-18T10:10:23;-2.20;99.90
44855;DHT22;30591;48.228;16.398;2022-12-18T10:20:54;-2.10;99.90
44855;DHT22;30591;48.228;16.398;2022-12-18T10:23:33;-2.10;99.90
44855;DHT22;30591;48.228;16.398;2022-12-18T10:26:17;-2.10;99.90
44855;DHT22;30591;48.228;16.398;2022-12-18T10:28:45;-2.30;99.90
44855;DHT22;30591;48.228;16.398;2022-12-18T10:31:20;-2.10;99.90
44855;DHT22;30591;48.228;16.398;2022-12-18T10:34:03;-2.20;99.90
44855;DHT22;30591;48.228;16.398;2022-12-18T10:36:32;-2.10;99.90
44855;DHT22;30591;48.228;16.398;2022-12-18T10:39:22;-2.10;99.90
44855;DHT22;30591;48.228;16.398;2022-12-18T10:41:56;-2.20;99.90
44855;DHT22;30591;48.228;16.398;2022-12-18T10:45:14;-2.20;99.90
44855;DHT22;30591;48.228;16.398;2022-12-18T10:47:49;-2.30;99.90
44855;DHT22;30591;48.228;16.398;2022-12-18T10:50:37;-2.30;99.90
44855;DHT22;30591;48.228;16.398;2022-12-18T10:53:28;-2.20;99.90
44855;DHT22;30591;48.228;16.398;2022-12-18T10:56:04;-2.10;99.90
44855;DHT22;30591;48.228;16.398;2022-12-18T10:58:36;-2.00;99.90
44855;DHT22;30591;48.228;16.398;2022-12-18T11:01:12;-2.20;99.90
44855;DHT22;30591;48.228;16.398;2022-12-18T11:04:07;-2.20;99.90
44855;DHT22;30591;48.228;16.398;2022-12-18T11:06:59;-2.30;99.90
44855;DHT22;30591;48.228;16.398;2022-12-18T11:09:39;-2.30;99.90
44855;DHT22;30591;48.228;16.398;2022-12-18T11:12:18;-2.20;99.90
44855;DHT22;30591;48.228;16.398;2022-12-18T11:14:52;-2.20;99.90
44855;DHT22;30591;48.228;16.398;2022-12-18T11:17:29;-2.20;99.90
44855;DHT22;30591;48.228;16.398;2022-12-18T11:20:00;-2.10;99.90
44855;DHT22;30591;48.228;16.398;2022-12-18T11:22:32;-2.20;99.90
44855;DHT22;30591;48.228;16.398;2022-12-18T11:25:29;-2.30;99.90
44855;DHT22;30591;48.228;16.398;2022-12-18T11:28:03;-2.20;99.90
44855;DHT22;30591;48.228;16.398;2022-12-18T11:30:33;-2.20;99.90
44855;DHT22;30591;48.228;16.398;2022-12-18T11:38:44;-2.40;99.90
44855;DHT22;30591;48.228;16.398;2022-12-18T11:44:09;-2.30;99.90
44855;DHT22;30591;48.228;16.398;2022-12-18T11:46:45;-2.30;99.90
44855;DHT22;30591;48.228;16.398;2022-12-18T11:49:49;-2.20;99.90
44855;DHT22;30591;48.228;16.398;2022-12-18T11:52:26;-2.30;99.90
44855;DHT22;30591;48.228;16.398;2022-12-18T11:55:13;-2.20;99.90
44855;DHT22;30591;48.228;16.398;2022-12-18T12:04:07;-2.20;99.90
44855;DHT22;30591;48.228;16.398;2022-12-18T12:15:05;-2.30;99.90
44855;DHT22;30591;48.228;16.398;2022-12-18T12:17:47;-2.20;99.90
44855;DHT22;30591;48.228;16.398;2022-12-18T12:20:32;-2.10;99.90
44855;DHT22;30591;48.228;16.398;2022-12-18T12:31:50;-2.20;99.90
44855;DHT22;30591;48.228;16.398;2022-12-18T12:40:29;-2.40;99.90
44855;DHT22;30591;48.228;16.398;2022-12-18T12:46:11;-2.50;99.90
44855;DHT22;30591;48.228;16.398;2022-12-18T12:49:15;-2.50;99.90
44855;DHT22;30591;48.228;16.398;2022-12-18T12:51:39;-2.40;99.90
44855;DHT22;30591;48.228;16.398;2022-12-18T12:54:19;-2.40;99.90
44855;DHT22;30591;48.228;16.398;2022-12-18T13:05:45;-2.40;99.90
44855;DHT22;30591;48.228;16.398;2022-12-18T13:09:18;-2.40;99.90
44855;DHT22;30591;48.228;16.398;2022-12-18T13:11:36;-2.40;99.90
44855;DHT22;30591;48.228;16.398;2022-12-18T13:22:42;-2.60;99.90
44855;DHT22;30591;48.228;16.398;2022-12-18T13:25:34;-2.60;99.90
44855;DHT22;30591;48.228;16.398;2022-12-18T13:31:02;-2.50;99.90
44855;DHT22;30591;48.228;16.398;2022-12-18T13:33:37;-2.40;99.90
44855;DHT22;30591;48.228;16.398;2022-12-18T13:36:50;-2.40;99.90
44855;DHT22;30591;48.228;16.398;2022-12-18T13:39:31;-2.50;99.90
44855;DHT22;30591;48.228;16.398;2022-12-18T13:46:20;-2.40;99.90
44855;DHT22;30591;48.228;16.398;2022-12-18T13:48:57;-2.40;99.90
44855;DHT22;30591;48.228;16.398;2022-12-18T13:55:51;-2.40;99.90
44855;DHT22;30591;48.228;16.398;2022-12-18T14:01:53;-2.40;99.90
44855;DHT22;30591;48.228;16.398;2022-12-18T14:04:47;-2.50;99.90
44855;DHT22;30591;48.228;16.398;2022-12-18T14:07:23;-2.50;99.90
44855;DHT22;30591;48.228;16.398;2022-12-18T14:13:29;-2.50;99.90
44855;DHT22;30591;48.228;16.398;2022-12-18T14:16:17;-2.50;99.90
44855;DHT22;30591;48.228;16.398;2022-12-18T14:18:55;-2.50;99.90
44855;DHT22;30591;48.228;16.398;2022-12-18T14:21:48;-2.50;99.90
44855;DHT22;30591;48.228;16.398;2022-12-18T14:24:21;-2.50;99.90
44855;DHT22;30591;48.228;16.398;2022-12-18T14:27:20;-2.50;99.90
44855;DHT22;30591;48.228;16.398;2022-12-18T14:29:50;-2.60;99.90
44855;DHT22;30591;48.228;16.398;2022-12-18T14:32:19;-2.60;99.90
44855;DHT22;30591;48.228;16.398;2022-12-18T14:42:20;-2.70;99.90
44855;DHT22;30591;48.228;16.398;2022-12-18T14:44:50;-2.70;99.90
44855;DHT22;30591;48.228;16.398;2022-12-18T14:48:14;-2.70;99.90
44855;DHT22;30591;48.228;16.398;2022-12-18T14:54:39;-2.80;99.90
44855;DHT22;30591;48.228;16.398;2022-12-18T14:57:22;-2.70;99.90
44855;DHT22;30591;48.228;16.398;2022-12-18T15:00:06;-2.80;99.90
44855;DHT22;30591;48.228;16.398;2022-12-18T15:06:25;-2.80;99.90
44855;DHT22;30591;48.228;16.398;2022-12-18T15:09:29;-2.70;99.90
44855;DHT22;30591;48.228;16.398;2022-12-18T15:12:35;-2.80;99.90
44855;DHT22;30591;48.228;16.398;2022-12-18T15:18:18;-2.80;99.90
44855;DHT22;30591;48.228;16.398;2022-12-18T15:20:58;-2.80;99.90
44855;DHT22;30591;48.228;16.398;2022-12-18T15:26:37;-2.90;99.90
44855;DHT22;30591;48.228;16.398;2022-12-18T15:29:19;-2.90;99.90
44855;DHT22;30591;48.228;16.398;2022-12-18T15:32:00;-2.90;99.90
44855;DHT22;30591;48.228;16.398;2022-12-18T15:34:28;-2.90;99.90
44855;DHT22;30591;48.228;16.398;2022-12-18T15:36:58;-2.90;99.90
44855;DHT22;30591;48.228;16.398;2022-12-18T15:39:26;-2.90;99.90
44855;DHT22;30591;48.228;16.398;2022-12-18T15:41:54;-2.90;99.90
44855;DHT22;30591;48.228;16.398;2022-12-18T15:45:05;-2.90;99.90
44855;DHT22;30591;48.228;16.398;2022-12-18T15:47:33;-2.90;99.90
44855;DHT22;30591;48.228;16.398;2022-12-18T15:53:32;-2.90;99.90
44855;DHT22;30591;48.228;16.398;2022-12-18T15:56:04;-2.90;99.90
44855;DHT22;30591;48.228;16.398;2022-12-18T15:58:51;-2.90;99.90
44855;DHT22;30591;48.228;16.398;2022-12-18T16:01:24;-2.80;99.90
44855;DHT22;30591;48.228;16.398;2022-12-18T16:03:52;-2.80;99.90
44855;DHT22;30591;48.228;16.398;2022-12-18T16:06:22;-2.80;99.90
44855;DHT22;30591;48.228;16.398;2022-12-18T16:08:50;-2.80;99.90
44855;DHT22;30591;48.228;16.398;2022-12-18T16:11:26;-2.80;99.90
44855;DHT22;30591;48.228;16.398;2022-12-18T16:14:25;-2.80;99.90
44855;DHT22;30591;48.228;16.398;2022-12-18T16:16:59;-2.80;99.90
44855;DHT22;30591;48.228;16.398;2022-12-18T16:19:27;-2.70;99.90
44855;DHT22;30591;48.228;16.398;2022-12-18T16:21:58;-2.70;99.90
44855;DHT22;30591;48.228;16.398;2022-12-18T16:24:30;-2.70;99.90
44855;DHT22;30591;48.228;16.398;2022-12-18T16:27:05;-2.70;99.90
44855;DHT22;30591;48.228;16.398;2022-12-18T16:29:33;-2.70;99.90
44855;DHT22;30591;48.228;16.398;2022-12-18T16:32:20;-2.70;99.90
44855;DHT22;30591;48.228;16.398;2022-12-18T16:34:49;-2.60;99.90
44855;DHT22;30591;48.228;16.398;2022-12-18T16:37:17;-2.20;99.90
44855;DHT22;30591;48.228;16.398;2022-12-18T16:39:49;-2.60;99.90
44855;DHT22;30591;48.228;16.398;2022-12-18T16:42:19;-2.50;99.90
44855;DHT22;30591;48.228;16.398;2022-12-18T16:44:49;-2.60;99.90
44855;DHT22;30591;48.228;16.398;2022-12-18T16:47:18;-2.50;99.90
44855;DHT22;30591;48.228;16.398;2022-12-18T16:49:45;-2.50;99.90
44855;DHT22;30591;48.228;16.398;2022-12-18T16:52:13;-2.50;99.90
44855;DHT22;30591;48.228;16.398;2022-12-18T16:54:51;-2.50;99.90
44855;DHT22;30591;48.228;16.398;2022-12-18T16:57:19;-2.30;99.90
44855;DHT22;30591;48.228;16.398;2022-12-18T17:00:04;-2.40;99.90
44855;DHT22;30591;48.228;16.398;2022-12-18T17:02:33;-2.50;99.90
44855;DHT22;30591;48.228;16.398;2022-12-18T17:05:24;-2.50;99.90
44855;DHT22;30591;48.228;16.398;2022-12-18T17:07:52;-2.50;99.90
44855;DHT22;30591;48.228;16.398;2022-12-18T17:10:49;-2.40;99.90
44855;DHT22;30591;48.228;16.398;2022-12-18T17:13:17;-2.40;99.90
44855;DHT22;30591;48.228;16.398;2022-12-18T17:15:52;-2.40;99.90
44855;DHT22;30591;48.228;16.398;2022-12-18T17:18:22;-2.40;99.90
44855;DHT22;30591;48.228;16.398;2022-12-18T17:21:06;-2.40;99.90
44855;DHT22;30591;48.228;16.398;2022-12-18T17:23:36;-2.40;99.90
44855;DHT22;30591;48.228;16.398;2022-12-18T17:26:04;-2.40;99.90
44855;DHT22;30591;48.228;16.398;2022-12-18T17:28:34;-2.40;99.90
44855;DHT22;30591;48.228;16.398;2022-12-18T17:31:27;-2.40;99.90
44855;DHT22;30591;48.228;16.398;2022-12-18T17:34:03;-2.40;99.90
44855;DHT22;30591;48.228;16.398;2022-12-18T17:36:31;-2.40;99.90
44855;DHT22;30591;48.228;16.398;2022-12-18T17:39:05;-2.40;99.90
44855;DHT22;30591;48.228;16.398;2022-12-18T17:41:36;-2.40;99.90
44855;DHT22;30591;48.228;16.398;2022-12-18T17:44:05;-2.40;99.90
44855;DHT22;30591;48.228;16.398;2022-12-18T17:46:33;-2.40;99.90
44855;DHT22;30591;48.228;16.398;2022-12-18T17:49:20;-2.40;99.90
44855;DHT22;30591;48.228;16.398;2022-12-18T17:51:49;-2.40;99.90
44855;DHT22;30591;48.228;16.398;2022-12-18T17:54:18;-2.40;99.90
44855;DHT22;30591;48.228;16.398;2022-12-18T17:56:46;-2.40;99.90
44855;DHT22;30591;48.228;16.398;2022-12-18T17:59:16;-2.40;99.90
44855;DHT22;30591;48.228;16.398;2022-12-18T18:01:45;-2.40;99.90
44855;DHT22;30591;48.228;16.398;2022-12-18T18:04:22;-2.40;99.90
44855;DHT22;30591;48.228;16.398;2022-12-18T18:06:50;-2.40;99.90
44855;DHT22;30591;48.228;16.398;2022-12-18T18:09:19;-2.30;99.90
44855;DHT22;30591;48.228;16.398;2022-12-18T18:11:53;-2.30;99.90
44855;DHT22;30591;48.228;16.398;2022-12-18T18:14:40;-2.30;99.90
44855;DHT22;30591;48.228;16.398;2022-12-18T18:17:09;-2.30;99.90
44855;DHT22;30591;48.228;16.398;2022-12-18T18:19:56;-2.30;99.90
44855;DHT22;30591;48.228;16.398;2022-12-18T18:22:25;-2.30;99.90
44855;DHT22;30591;48.228;16.398;2022-12-18T18:24:53;-2.20;99.90
44855;DHT22;30591;48.228;16.398;2022-12-18T18:27:32;-2.20;99.90
44855;DHT22;30591;48.228;16.398;2022-12-18T18:30:09;-2.20;99.90
44855;DHT22;30591;48.228;16.398;2022-12-18T18:32:38;-2.20;99.90